Saint Jacob, Illinois
Current Conditions -  °F | °C
As of 2:28 PM on Wednesday 26 Nov 2014 (Local Time) from KBLV Reporting Station
Light Snow Light Snow  
Wind Chill: 32°   Ceiling: 600
Heat Index: 32°   Visibility: 0.5mi
Dew Point: 32°   Wind: 2mph
Humidity: 100%   Direction: 80°E
Pressure: 29.99"   Gusts: NA
Location:  38.71°N, 89.77°W
Report Text: KBLV 262028Z AUTO 08002KT 1/2SM R14R/2200FT -SN FG FEW002 OVC006 00/00 A2999 RMK AO2 CIG 006V008
Loading
Personal Weather Stations






























Interactive Weather Map New forecast layout! Learn more

10-Day Weather Forecast

Advertisements
Track Severe Weather on mobile